sensor_id;sensor_type;location;lat;lon;timestamp;temperature;humidity
63277;DHT22;49403;51.046;13.780;2023-04-25T00:00:27;13.70;59.80
63277;DHT22;49403;51.046;13.780;2023-04-25T00:00:58;14.20;60.10
63277;DHT22;49403;51.046;13.780;2023-04-25T00:01:29;13.70;59.60
63277;DHT22;49403;51.046;13.780;2023-04-25T00:02:00;13.70;59.70
63277;DHT22;49403;51.046;13.780;2023-04-25T00:02:31;13.70;59.90
63277;DHT22;49403;51.046;13.780;2023-04-25T00:03:03;13.10;59.40
63277;DHT22;49403;51.046;13.780;2023-04-25T00:03:35;13.60;59.70
63277;DHT22;49403;51.046;13.780;2023-04-25T00:04:07;15.00;61.30
63277;DHT22;49403;51.046;13.780;2023-04-25T00:04:38;13.60;59.80
63277;DHT22;49403;51.046;13.780;2023-04-25T00:05:09;13.70;60.10
63277;DHT22;49403;51.046;13.780;2023-04-25T00:05:40;13.70;60.10
63277;DHT22;49403;51.046;13.780;2023-04-25T00:06:12;14.70;61.20
63277;DHT22;49403;51.046;13.780;2023-04-25T00:06:43;13.60;60.10
63277;DHT22;49403;51.046;13.780;2023-04-25T00:07:14;13.70;60.20
63277;DHT22;49403;51.046;13.780;2023-04-25T00:07:45;13.70;60.10
63277;DHT22;49403;51.046;13.780;2023-04-25T00:08:16;13.60;60.00
63277;DHT22;49403;51.046;13.780;2023-04-25T00:08:48;13.60;60.00
63277;DHT22;49403;51.046;13.780;2023-04-25T00:09:19;13.60;60.10
63277;DHT22;49403;51.046;13.780;2023-04-25T00:09:50;13.70;60.20
63277;DHT22;49403;51.046;13.780;2023-04-25T00:10:21;13.70;60.40
63277;DHT22;49403;51.046;13.780;2023-04-25T00:10:52;14.10;60.60
63277;DHT22;49403;51.046;13.780;2023-04-25T00:11:24;13.70;60.30
63277;DHT22;49403;51.046;13.780;2023-04-25T00:11:55;13.70;60.30
63277;DHT22;49403;51.046;13.780;2023-04-25T00:12:26;13.70;60.40
63277;DHT22;49403;51.046;13.780;2023-04-25T00:12:59;13.70;60.40
63277;DHT22;49403;51.046;13.780;2023-04-25T00:13:32;13.70;60.60
63277;DHT22;49403;51.046;13.780;2023-04-25T00:14:04;13.70;60.50
63277;DHT22;49403;51.046;13.780;2023-04-25T00:14:35;13.60;60.40
63277;DHT22;49403;51.046;13.780;2023-04-25T00:15:07;13.70;60.60
63277;DHT22;49403;51.046;13.780;2023-04-25T00:15:38;13.70;60.50
63277;DHT22;49403;51.046;13.780;2023-04-25T00:16:09;13.70;60.60
63277;DHT22;49403;51.046;13.780;2023-04-25T00:16:41;13.70;60.60
63277;DHT22;49403;51.046;13.780;2023-04-25T00:17:14;13.70;60.80
63277;DHT22;49403;51.046;13.780;2023-04-25T00:17:45;13.70;60.80
63277;DHT22;49403;51.046;13.780;2023-04-25T00:18:16;13.70;60.90
63277;DHT22;49403;51.046;13.780;2023-04-25T00:18:48;14.60;61.70
63277;DHT22;49403;51.046;13.780;2023-04-25T00:19:21;13.70;60.70
63277;DHT22;49403;51.046;13.780;2023-04-25T00:19:52;13.70;60.90
63277;DHT22;49403;51.046;13.780;2023-04-25T00:20:24;14.00;61.40
63277;DHT22;49403;51.046;13.780;2023-04-25T00:20:55;13.60;61.00
63277;DHT22;49403;51.046;13.780;2023-04-25T00:21:26;13.70;61.20
63277;DHT22;49403;51.046;13.780;2023-04-25T00:21:58;13.70;61.10
63277;DHT22;49403;51.046;13.780;2023-04-25T00:22:29;13.60;61.10
63277;DHT22;49403;51.046;13.780;2023-04-25T00:23:00;13.60;61.20
63277;DHT22;49403;51.046;13.780;2023-04-25T00:23:31;13.60;61.40
63277;DHT22;49403;51.046;13.780;2023-04-25T00:24:03;13.60;61.40
63277;DHT22;49403;51.046;13.780;2023-04-25T00:24:34;13.60;61.40
63277;DHT22;49403;51.046;13.780;2023-04-25T00:25:06;13.60;61.60
63277;DHT22;49403;51.046;13.780;2023-04-25T00:25:37;13.60;61.40
63277;DHT22;49403;51.046;13.780;2023-04-25T00:26:08;13.60;61.40
63277;DHT22;49403;51.046;13.780;2023-04-25T00:26:39;13.60;61.40
63277;DHT22;49403;51.046;13.780;2023-04-25T00:27:10;13.70;61.50
63277;DHT22;49403;51.046;13.780;2023-04-25T00:27:41;13.60;61.40
63277;DHT22;49403;51.046;13.780;2023-04-25T00:28:12;13.60;61.40
63277;DHT22;49403;51.046;13.780;2023-04-25T00:28:43;13.70;61.40
63277;DHT22;49403;51.046;13.780;2023-04-25T00:29:15;12.40;60.00
63277;DHT22;49403;51.046;13.780;2023-04-25T00:29:46;13.60;61.30
63277;DHT22;49403;51.046;13.780;2023-04-25T00:30:17;13.80;61.70
63277;DHT22;49403;51.046;13.780;2023-04-25T00:30:48;13.80;61.40
63277;DHT22;49403;51.046;13.780;2023-04-25T00:31:19;13.80;61.60
63277;DHT22;49403;51.046;13.780;2023-04-25T00:31:50;13.80;61.20
63277;DHT22;49403;51.046;13.780;2023-04-25T00:32:22;13.80;61.10
63277;DHT22;49403;51.046;13.780;2023-04-25T00:32:53;13.70;61.10
63277;DHT22;49403;51.046;13.780;2023-04-25T00:33:24;13.70;61.10
63277;DHT22;49403;51.046;13.780;2023-04-25T00:33:55;13.90;61.30
63277;DHT22;49403;51.046;13.780;2023-04-25T00:34:26;13.80;61.00
63277;DHT22;49403;51.046;13.780;2023-04-25T00:34:57;13.60;60.90
63277;DHT22;49403;51.046;13.780;2023-04-25T00:35:28;14.60;62.00
63277;DHT22;49403;51.046;13.780;2023-04-25T00:35:59;13.80;61.30
63277;DHT22;49403;51.046;13.780;2023-04-25T00:36:30;14.10;61.70
63277;DHT22;49403;51.046;13.780;2023-04-25T00:37:02;13.80;61.40
63277;DHT22;49403;51.046;13.780;2023-04-25T00:37:32;13.80;61.30
63277;DHT22;49403;51.046;13.780;2023-04-25T00:38:04;13.80;61.50
63277;DHT22;49403;51.046;13.780;2023-04-25T00:38:35;13.80;61.40
63277;DHT22;49403;51.046;13.780;2023-04-25T00:39:06;13.80;61.40
63277;DHT22;49403;51.046;13.780;2023-04-25T00:39:37;13.80;61.60
63277;DHT22;49403;51.046;13.780;2023-04-25T00:40:08;13.70;61.50
63277;DHT22;49403;51.046;13.780;2023-04-25T00:40:40;13.60;61.40
63277;DHT22;49403;51.046;13.780;2023-04-25T00:41:14;13.70;61.70
63277;DHT22;49403;51.046;13.780;2023-04-25T00:41:45;13.70;61.50
63277;DHT22;49403;51.046;13.780;2023-04-25T00:42:17;13.80;61.60
63277;DHT22;49403;51.046;13.780;2023-04-25T00:42:48;13.80;61.70
63277;DHT22;49403;51.046;13.780;2023-04-25T00:43:20;13.70;61.50
63277;DHT22;49403;51.046;13.780;2023-04-25T00:43:51;13.80;61.70
63277;DHT22;49403;51.046;13.780;2023-04-25T00:44:24;13.80;61.60
63277;DHT22;49403;51.046;13.780;2023-04-25T00:44:55;13.70;61.60
63277;DHT22;49403;51.046;13.780;2023-04-25T00:45:28;13.70;61.60
63277;DHT22;49403;51.046;13.780;2023-04-25T00:46:03;13.80;61.60
63277;DHT22;49403;51.046;13.780;2023-04-25T00:46:35;13.70;61.30
63277;DHT22;49403;51.046;13.780;2023-04-25T00:47:07;13.60;61.30
63277;DHT22;49403;51.046;13.780;2023-04-25T00:47:38;13.60;61.30
63277;DHT22;49403;51.046;13.780;2023-04-25T00:48:11;13.60;61.40
63277;DHT22;49403;51.046;13.780;2023-04-25T00:48:42;13.50;61.50
63277;DHT22;49403;51.046;13.780;2023-04-25T00:49:13;13.40;61.70
63277;DHT22;49403;51.046;13.780;2023-04-25T00:49:47;13.40;61.90
63277;DHT22;49403;51.046;13.780;2023-04-25T00:50:18;13.20;62.00
63277;DHT22;49403;51.046;13.780;2023-04-25T00:50:52;13.30;62.20
63277;DHT22;49403;51.046;13.780;2023-04-25T00:51:25;13.20;62.30
63277;DHT22;49403;51.046;13.780;2023-04-25T00:51:57;13.20;62.50
63277;DHT22;49403;51.046;13.780;2023-04-25T00:52:28;13.10;62.70
63277;DHT22;49403;51.046;13.780;2023-04-25T00:52:59;13.10;62.70
63277;DHT22;49403;51.046;13.780;2023-04-25T00:53:31;12.90;62.60
63277;DHT22;49403;51.046;13.780;2023-04-25T00:54:02;13.00;62.90
63277;DHT22;49403;51.046;13.780;2023-04-25T00:54:34;13.00;63.00
63277;DHT22;49403;51.046;13.780;2023-04-25T00:55:05;13.00;63.00
63277;DHT22;49403;51.046;13.780;2023-04-25T00:55:36;13.10;63.20
63277;DHT22;49403;51.046;13.780;2023-04-25T00:56:08;13.00;63.30
63277;DHT22;49403;51.046;13.780;2023-04-25T00:56:39;13.00;63.20
63277;DHT22;49403;51.046;13.780;2023-04-25T00:57:11;13.00;63.00
63277;DHT22;49403;51.046;13.780;2023-04-25T00:57:42;13.40;63.30
63277;DHT22;49403;51.046;13.780;2023-04-25T00:58:13;13.00;63.00
63277;DHT22;49403;51.046;13.780;2023-04-25T00:58:45;13.00;63.40
63277;DHT22;49403;51.046;13.780;2023-04-25T00:59:17;12.90;63.20
63277;DHT22;49403;51.046;13.780;2023-04-25T00:59:51;12.90;63.30
63277;DHT22;49403;51.046;13.780;2023-04-25T01:00:23;12.90;63.40
63277;DHT22;49403;51.046;13.780;2023-04-25T01:00:55;12.90;63.30
63277;DHT22;49403;51.046;13.780;2023-04-25T01:01:27;12.90;63.60
63277;DHT22;49403;51.046;13.780;2023-04-25T01:01:58;12.80;63.30
63277;DHT22;49403;51.046;13.780;2023-04-25T01:02:30;12.90;63.50
63277;DHT22;49403;51.046;13.780;2023-04-25T01:03:03;12.80;63.30
63277;DHT22;49403;51.046;13.780;2023-04-25T01:03:34;12.60;63.10
63277;DHT22;49403;51.046;13.780;2023-04-25T01:04:11;12.80;63.30
63277;DHT22;49403;51.046;13.780;2023-04-25T01:04:42;12.80;63.30
63277;DHT22;49403;51.046;13.780;2023-04-25T01:05:13;12.90;63.60
63277;DHT22;49403;51.046;13.780;2023-04-25T01:05:44;12.70;63.60
63277;DHT22;49403;51.046;13.780;2023-04-25T01:06:16;12.70;63.60
63277;DHT22;49403;51.046;13.780;2023-04-25T01:06:48;12.60;63.90
63277;DHT22;49403;51.046;13.780;2023-04-25T01:07:19;12.90;64.30
63277;DHT22;49403;51.046;13.780;2023-04-25T01:07:50;12.50;63.80
63277;DHT22;49403;51.046;13.780;2023-04-25T01:08:23;12.50;63.90
63277;DHT22;49403;51.046;13.780;2023-04-25T01:08:57;12.50;63.90
63277;DHT22;49403;51.046;13.780;2023-04-25T01:09:30;12.50;63.90
63277;DHT22;49403;51.046;13.780;2023-04-25T01:10:03;12.40;63.90
63277;DHT22;49403;51.046;13.780;2023-04-25T01:10:34;12.40;64.00
63277;DHT22;49403;51.046;13.780;2023-04-25T01:11:06;12.40;64.10
63277;DHT22;49403;51.046;13.780;2023-04-25T01:11:37;12.30;64.30
63277;DHT22;49403;51.046;13.780;2023-04-25T01:12:11;12.30;64.40
63277;DHT22;49403;51.046;13.780;2023-04-25T01:12:42;12.30;64.40
63277;DHT22;49403;51.046;13.780;2023-04-25T01:13:14;12.30;64.50
63277;DHT22;49403;51.046;13.780;2023-04-25T01:13:48;12.20;64.60
63277;DHT22;49403;51.046;13.780;2023-04-25T01:14:19;12.20;64.70
63277;DHT22;49403;51.046;13.780;2023-04-25T01:14:50;12.10;64.80
63277;DHT22;49403;51.046;13.780;2023-04-25T01:15:22;12.10;65.00
63277;DHT22;49403;51.046;13.780;2023-04-25T01:15:53;12.10;65.10
63277;DHT22;49403;51.046;13.780;2023-04-25T01:16:25;12.00;65.10
63277;DHT22;49403;51.046;13.780;2023-04-25T01:16:59;12.00;65.20
63277;DHT22;49403;51.046;13.780;2023-04-25T01:17:30;12.00;65.30
63277;DHT22;49403;51.046;13.780;2023-04-25T01:18:03;12.00;65.40
63277;DHT22;49403;51.046;13.780;2023-04-25T01:18:39;12.00;65.40
63277;DHT22;49403;51.046;13.780;2023-04-25T01:19:11;12.00;65.50
63277;DHT22;49403;51.046;13.780;2023-04-25T01:19:42;12.00;65.60
63277;DHT22;49403;51.046;13.780;2023-04-25T01:20:21;11.90;65.40
63277;DHT22;49403;51.046;13.780;2023-04-25T01:20:54;11.90;65.40
63277;DHT22;49403;51.046;13.780;2023-04-25T01:21:26;11.90;65.50
63277;DHT22;49403;51.046;13.780;2023-04-25T01:22:00;11.90;65.60
63277;DHT22;49403;51.046;13.780;2023-04-25T01:22:34;11.90;65.70
63277;DHT22;49403;51.046;13.780;2023-04-25T01:23:06;11.90;65.70
63277;DHT22;49403;51.046;13.780;2023-04-25T01:23:41;11.90;65.70
63277;DHT22;49403;51.046;13.780;2023-04-25T01:24:13;12.00;65.70
63277;DHT22;49403;51.046;13.780;2023-04-25T01:24:44;12.00;65.60
63277;DHT22;49403;51.046;13.780;2023-04-25T01:25:16;12.00;65.50
63277;DHT22;49403;51.046;13.780;2023-04-25T01:25:48;11.90;65.40
63277;DHT22;49403;51.046;13.780;2023-04-25T01:26:21;13.60;67.10
63277;DHT22;49403;51.046;13.780;2023-04-25T01:26:54;12.00;65.50
63277;DHT22;49403;51.046;13.780;2023-04-25T01:27:27;12.00;65.40
63277;DHT22;49403;51.046;13.780;2023-04-25T01:27:59;11.90;65.40
63277;DHT22;49403;51.046;13.780;2023-04-25T01:28:34;11.90;65.30
63277;DHT22;49403;51.046;13.780;2023-04-25T01:29:07;11.90;65.30
63277;DHT22;49403;51.046;13.780;2023-04-25T01:29:38;11.90;65.50
63277;DHT22;49403;51.046;13.780;2023-04-25T01:30:10;11.90;65.50
63277;DHT22;49403;51.046;13.780;2023-04-25T01:30:42;11.90;65.50
63277;DHT22;49403;51.046;13.780;2023-04-25T01:31:17;11.90;65.50
63277;DHT22;49403;51.046;13.780;2023-04-25T01:31:49;11.90;65.40
63277;DHT22;49403;51.046;13.780;2023-04-25T01:32:23;11.80;65.40
63277;DHT22;49403;51.046;13.780;2023-04-25T01:32:55;11.80;65.40
63277;DHT22;49403;51.046;13.780;2023-04-25T01:33:27;11.80;65.50
63277;DHT22;49403;51.046;13.780;2023-04-25T01:33:58;11.80;65.40
63277;DHT22;49403;51.046;13.780;2023-04-25T01:34:29;11.80;65.40
63277;DHT22;49403;51.046;13.780;2023-04-25T01:35:00;11.80;65.40
63277;DHT22;49403;51.046;13.780;2023-04-25T01:35:33;12.90;66.20
63277;DHT22;49403;51.046;13.780;2023-04-25T01:36:05;11.80;65.20
63277;DHT22;49403;51.046;13.780;2023-04-25T01:36:39;11.80;65.20
63277;DHT22;49403;51.046;13.780;2023-04-25T01:37:11;11.70;65.30
63277;DHT22;49403;51.046;13.780;2023-04-25T01:37:43;11.80;65.30
63277;DHT22;49403;51.046;13.780;2023-04-25T01:38:14;11.80;65.20
63277;DHT22;49403;51.046;13.780;2023-04-25T01:38:46;11.70;65.10
63277;DHT22;49403;51.046;13.780;2023-04-25T01:39:23;11.70;65.20
63277;DHT22;49403;51.046;13.780;2023-04-25T01:39:55;11.70;65.20
63277;DHT22;49403;51.046;13.780;2023-04-25T01:40:27;11.70;65.30
63277;DHT22;49403;51.046;13.780;2023-04-25T01:41:02;11.70;65.20
63277;DHT22;49403;51.046;13.780;2023-04-25T01:41:33;11.60;65.20
63277;DHT22;49403;51.046;13.780;2023-04-25T01:42:07;11.70;65.30
63277;DHT22;49403;51.046;13.780;2023-04-25T01:42:43;11.70;65.30
63277;DHT22;49403;51.046;13.780;2023-04-25T01:43:14;11.70;65.30
63277;DHT22;49403;51.046;13.780;2023-04-25T01:43:46;11.60;65.20
63277;DHT22;49403;51.046;13.780;2023-04-25T01:44:17;11.60;65.10
63277;DHT22;49403;51.046;13.780;2023-04-25T01:44:51;11.60;65.20
63277;DHT22;49403;51.046;13.780;2023-04-25T01:45:26;11.60;65.20
63277;DHT22;49403;51.046;13.780;2023-04-25T01:45:57;11.60;65.30
63277;DHT22;49403;51.046;13.780;2023-04-25T01:46:29;11.60;65.60
63277;DHT22;49403;51.046;13.780;2023-04-25T01:47:00;11.60;65.30
63277;DHT22;49403;51.046;13.780;2023-04-25T01:47:31;11.70;66.20
63277;DHT22;49403;51.046;13.780;2023-04-25T01:48:04;11.50;65.10
63277;DHT22;49403;51.046;13.780;2023-04-25T01:48:39;11.50;65.10
63277;DHT22;49403;51.046;13.780;2023-04-25T01:49:14;11.70;65.30
63277;DHT22;49403;51.046;13.780;2023-04-25T01:49:45;11.60;65.00
63277;DHT22;49403;51.046;13.780;2023-04-25T01:50:18;11.60;65.00
63277;DHT22;49403;51.046;13.780;2023-04-25T01:50:52;11.60;65.00
63277;DHT22;49403;51.046;13.780;2023-04-25T01:51:27;11.60;64.90
63277;DHT22;49403;51.046;13.780;2023-04-25T01:51:58;11.60;64.80
63277;DHT22;49403;51.046;13.780;2023-04-25T01:52:32;11.60;64.90
63277;DHT22;49403;51.046;13.780;2023-04-25T01:53:04;11.70;65.00
63277;DHT22;49403;51.046;13.780;2023-04-25T01:53:35;11.60;64.70
63277;DHT22;49403;51.046;13.780;2023-04-25T01:54:08;11.60;64.80
63277;DHT22;49403;51.046;13.780;2023-04-25T01:54:40;11.60;65.00
63277;DHT22;49403;51.046;13.780;2023-04-25T01:55:15;11.50;64.80
63277;DHT22;49403;51.046;13.780;2023-04-25T01:55:46;11.50;64.80
63277;DHT22;49403;51.046;13.780;2023-04-25T01:56:18;11.50;64.90
63277;DHT22;49403;51.046;13.780;2023-04-25T01:56:52;10.80;64.20
63277;DHT22;49403;51.046;13.780;2023-04-25T01:57:24;11.50;64.90
63277;DHT22;49403;51.046;13.780;2023-04-25T01:57:55;11.60;64.90
63277;DHT22;49403;51.046;13.780;2023-04-25T01:58:26;11.50;64.60
63277;DHT22;49403;51.046;13.780;2023-04-25T01:59:01;11.50;64.60
63277;DHT22;49403;51.046;13.780;2023-04-25T01:59:32;11.50;64.60
63277;DHT22;49403;51.046;13.780;2023-04-25T02:00:07;11.50;64.60
63277;DHT22;49403;51.046;13.780;2023-04-25T02:00:39;11.50;64.80
63277;DHT22;49403;51.046;13.780;2023-04-25T02:01:14;11.50;64.80
63277;DHT22;49403;51.046;13.780;2023-04-25T02:01:45;11.50;64.80
63277;DHT22;49403;51.046;13.780;2023-04-25T02:02:16;11.50;64.80
63277;DHT22;49403;51.046;13.780;2023-04-25T02:02:50;11.50;64.60
63277;DHT22;49403;51.046;13.780;2023-04-25T02:03:24;11.40;64.40
63277;DHT22;49403;51.046;13.780;2023-04-25T02:03:55;11.50;64.50
63277;DHT22;49403;51.046;13.780;2023-04-25T02:04:27;11.50;64.90
63277;DHT22;49403;51.046;13.780;2023-04-25T02:05:01;11.50;64.40
63277;DHT22;49403;51.046;13.780;2023-04-25T02:05:36;11.50;64.50
63277;DHT22;49403;51.046;13.780;2023-04-25T02:06:08;11.50;64.50
63277;DHT22;49403;51.046;13.780;2023-04-25T02:06:42;11.40;64.50
63277;DHT22;49403;51.046;13.780;2023-04-25T02:07:16;11.40;64.60
63277;DHT22;49403;51.046;13.780;2023-04-25T02:07:48;11.40;64.70
63277;DHT22;49403;51.046;13.780;2023-04-25T02:08:25;11.40;64.70
63277;DHT22;49403;51.046;13.780;2023-04-25T02:08:57;11.40;64.70
63277;DHT22;49403;51.046;13.780;2023-04-25T02:09:29;11.40;64.70
63277;DHT22;49403;51.046;13.780;2023-04-25T02:10:03;11.30;64.70
63277;DHT22;49403;51.046;13.780;2023-04-25T02:10:35;11.40;64.70
63277;DHT22;49403;51.046;13.780;2023-04-25T02:11:12;11.40;64.80
63277;DHT22;49403;51.046;13.780;2023-04-25T02:11:46;11.40;64.80
63277;DHT22;49403;51.046;13.780;2023-04-25T02:12:17;11.40;64.80
63277;DHT22;49403;51.046;13.780;2023-04-25T02:12:49;11.40;64.90
63277;DHT22;49403;51.046;13.780;2023-04-25T02:13:23;11.40;64.80
63277;DHT22;49403;51.046;13.780;2023-04-25T02:13:57;11.30;64.60
63277;DHT22;49403;51.046;13.780;2023-04-25T02:14:28;11.40;64.70
63277;DHT22;49403;51.046;13.780;2023-04-25T02:15:07;11.40;64.70
63277;DHT22;49403;51.046;13.780;2023-04-25T02:15:39;11.30;64.40
63277;DHT22;49403;51.046;13.780;2023-04-25T02:16:13;11.30;64.50
63277;DHT22;49403;51.046;13.780;2023-04-25T02:16:44;11.30;64.90
63277;DHT22;49403;51.046;13.780;2023-04-25T02:17:18;11.30;64.60
63277;DHT22;49403;51.046;13.780;2023-04-25T02:17:50;11.30;64.60
63277;DHT22;49403;51.046;13.780;2023-04-25T02:18:23;11.30;64.60
63277;DHT22;49403;51.046;13.780;2023-04-25T02:18:57;11.30;64.60
63277;DHT22;49403;51.046;13.780;2023-04-25T02:19:31;11.30;64.70
63277;DHT22;49403;51.046;13.780;2023-04-25T02:20:03;11.20;64.70
63277;DHT22;49403;51.046;13.780;2023-04-25T02:20:44;11.20;64.80
63277;DHT22;49403;51.046;13.780;2023-04-25T02:21:19;11.20;65.00
63277;DHT22;49403;51.046;13.780;2023-04-25T02:21:53;10.90;65.10
63277;DHT22;49403;51.046;13.780;2023-04-25T02:22:27;11.00;65.30
63277;DHT22;49403;51.046;13.780;2023-04-25T02:23:01;11.10;65.50
63277;DHT22;49403;51.046;13.780;2023-04-25T02:23:33;11.10;65.70
63277;DHT22;49403;51.046;13.780;2023-04-25T02:24:08;10.40;65.10
63277;DHT22;49403;51.046;13.780;2023-04-25T02:24:39;11.10;66.00
63277;DHT22;49403;51.046;13.780;2023-04-25T02:25:14;11.10;65.70
63277;DHT22;49403;51.046;13.780;2023-04-25T02:25:46;11.00;65.80
63277;DHT22;49403;51.046;13.780;2023-04-25T02:26:18;11.60;66.30
63277;DHT22;49403;51.046;13.780;2023-04-25T02:26:49;11.00;65.90
63277;DHT22;49403;51.046;13.780;2023-04-25T02:27:23;11.00;65.80
63277;DHT22;49403;51.046;13.780;2023-04-25T02:27:55;11.00;65.80
63277;DHT22;49403;51.046;13.780;2023-04-25T02:28:26;11.00;65.90
63277;DHT22;49403;51.046;13.780;2023-04-25T02:29:01;11.00;65.90
63277;DHT22;49403;51.046;13.780;2023-04-25T02:29:32;10.90;66.10
63277;DHT22;49403;51.046;13.780;2023-04-25T02:30:07;11.00;65.80
63277;DHT22;49403;51.046;13.780;2023-04-25T02:30:39;11.00;65.60
63277;DHT22;49403;51.046;13.780;2023-04-25T02:31:13;11.00;65.70
63277;DHT22;49403;51.046;13.780;2023-04-25T02:31:47;10.90;65.70
63277;DHT22;49403;51.046;13.780;2023-04-25T02:32:19;10.90;65.80
63277;DHT22;49403;51.046;13.780;2023-04-25T02:32:53;10.90;65.80
63277;DHT22;49403;51.046;13.780;2023-04-25T02:33:27;10.90;66.00
63277;DHT22;49403;51.046;13.780;2023-04-25T02:33:59;10.90;66.00
63277;DHT22;49403;51.046;13.780;2023-04-25T02:34:30;10.80;66.90
63277;DHT22;49403;51.046;13.780;2023-04-25T02:35:04;10.80;66.20
63277;DHT22;49403;51.046;13.780;2023-04-25T02:35:38;10.80;66.30
63277;DHT22;49403;51.046;13.780;2023-04-25T02:36:09;10.80;66.50
63277;DHT22;49403;51.046;13.780;2023-04-25T02:36:41;10.80;66.50
63277;DHT22;49403;51.046;13.780;2023-04-25T02:37:14;10.80;66.70
63277;DHT22;49403;51.046;13.780;2023-04-25T02:37:49;10.80;66.40
63277;DHT22;49403;51.046;13.780;2023-04-25T02:38:20;10.70;66.60
63277;DHT22;49403;51.046;13.780;2023-04-25T02:38:51;11.40;67.20
63277;DHT22;49403;51.046;13.780;2023-04-25T02:39:23;10.80;67.00
63277;DHT22;49403;51.046;13.780;2023-04-25T02:39:55;10.70;66.40
63277;DHT22;49403;51.046;13.780;2023-04-25T02:40:27;12.50;68.40
63277;DHT22;49403;51.046;13.780;2023-04-25T02:41:04;10.80;66.70
63277;DHT22;49403;51.046;13.780;2023-04-25T02:41:35;10.70;66.50
63277;DHT22;49403;51.046;13.780;2023-04-25T02:42:06;10.70;66.70
63277;DHT22;49403;51.046;13.780;2023-04-25T02:42:38;10.70;66.80
63277;DHT22;49403;51.046;13.780;2023-04-25T02:43:09;10.70;66.60
63277;DHT22;49403;51.046;13.780;2023-04-25T02:43:40;10.70;66.80
63277;DHT22;49403;51.046;13.780;2023-04-25T02:44:11;10.70;66.90
63277;DHT22;49403;51.046;13.780;2023-04-25T02:44:43;10.70;67.00
63277;DHT22;49403;51.046;13.780;2023-04-25T02:45:16;11.60;67.70
63277;DHT22;49403;51.046;13.780;2023-04-25T02:45:48;10.20;66.40
63277;DHT22;49403;51.046;13.780;2023-04-25T02:46:22;11.00;67.20
63277;DHT22;49403;51.046;13.780;2023-04-25T02:46:53;10.70;67.00
63277;DHT22;49403;51.046;13.780;2023-04-25T02:47:24;10.70;66.90
63277;DHT22;49403;51.046;13.780;2023-04-25T02:47:59;10.70;67.10
63277;DHT22;49403;51.046;13.780;2023-04-25T02:48:30;10.80;67.40
63277;DHT22;49403;51.046;13.780;2023-04-25T02:49:01;10.60;66.80
63277;DHT22;49403;51.046;13.780;2023-04-25T02:49:35;11.20;67.20
63277;DHT22;49403;51.046;13.780;2023-04-25T02:50:07;11.40;67.60
63277;DHT22;49403;51.046;13.780;2023-04-25T02:50:39;10.70;66.90
63277;DHT22;49403;51.046;13.780;2023-04-25T02:51:10;10.70;66.90
63277;DHT22;49403;51.046;13.780;2023-04-25T02:51:41;9.90;67.30
63277;DHT22;49403;51.046;13.780;2023-04-25T02:52:12;10.70;66.90
63277;DHT22;49403;51.046;13.780;2023-04-25T02:52:44;10.70;66.90
63277;DHT22;49403;51.046;13.780;2023-04-25T02:53:18;11.00;67.40
63277;DHT22;49403;51.046;13.780;2023-04-25T02:53:49;10.70;67.10
63277;DHT22;49403;51.046;13.780;2023-04-25T02:54:21;10.70;67.00
63277;DHT22;49403;51.046;13.780;2023-04-25T02:54:52;10.70;67.00
63277;DHT22;49403;51.046;13.780;2023-04-25T02:55:23;10.70;67.10
63277;DHT22;49403;51.046;13.780;2023-04-25T02:55:55;10.70;67.10
63277;DHT22;49403;51.046;13.780;2023-04-25T02:56:28;10.70;67.00
63277;DHT22;49403;51.046;13.780;2023-04-25T02:57:00;10.70;67.30
63277;DHT22;49403;51.046;13.780;2023-04-25T02:57:33;10.60;67.00
63277;DHT22;49403;51.046;13.780;2023-04-25T02:58:04;10.70;68.20
63277;DHT22;49403;51.046;13.780;2023-04-25T02:58:36;10.70;67.10
63277;DHT22;49403;51.046;13.780;2023-04-25T02:59:10;10.70;67.20
63277;DHT22;49403;51.046;13.780;2023-04-25T02:59:41;10.70;67.10
63277;DHT22;49403;51.046;13.780;2023-04-25T03:00:13;11.40;67.90
63277;DHT22;49403;51.046;13.780;2023-04-25T03:00:44;11.00;67.60
63277;DHT22;49403;51.046;13.780;2023-04-25T03:01:16;10.70;67.20
63277;DHT22;49403;51.046;13.780;2023-04-25T03:01:47;10.70;67.70
63277;DHT22;49403;51.046;13.780;2023-04-25T03:02:18;10.70;67.30
63277;DHT22;49403;51.046;13.780;2023-04-25T03:02:50;10.70;67.30
63277;DHT22;49403;51.046;13.780;2023-04-25T03:03:21;10.80;67.40
63277;DHT22;49403;51.046;13.780;2023-04-25T03:03:52;10.80;68.10
63277;DHT22;49403;51.046;13.780;2023-04-25T03:04:24;9.70;67.50
63277;DHT22;49403;51.046;13.780;2023-04-25T03:04:55;10.60;67.20
63277;DHT22;49403;51.046;13.780;2023-04-25T03:05:26;10.70;67.30
63277;DHT22;49403;51.046;13.780;2023-04-25T03:05:57;10.70;67.30
63277;DHT22;49403;51.046;13.780;2023-04-25T03:06:28;10.70;67.40
63277;DHT22;49403;51.046;13.780;2023-04-25T03:07:00;10.70;67.90
63277;DHT22;49403;51.046;13.780;2023-04-25T03:07:31;10.70;67.10
63277;DHT22;49403;51.046;13.780;2023-04-25T03:08:02;10.70;67.30
63277;DHT22;49403;51.046;13.780;2023-04-25T03:08:34;10.70;67.10
63277;DHT22;49403;51.046;13.780;2023-04-25T03:09:05;10.70;67.30
63277;DHT22;49403;51.046;13.780;2023-04-25T03:09:37;10.70;67.10
63277;DHT22;49403;51.046;13.780;2023-04-25T03:10:08;10.70;67.10
63277;DHT22;49403;51.046;13.780;2023-04-25T03:10:40;10.70;66.90
63277;DHT22;49403;51.046;13.780;2023-04-25T03:11:11;10.80;67.20
63277;DHT22;49403;51.046;13.780;2023-04-25T03:11:43;10.60;67.00
63277;DHT22;49403;51.046;13.780;2023-04-25T03:12:15;10.70;67.00
63277;DHT22;49403;51.046;13.780;2023-04-25T03:12:50;10.70;67.10
63277;DHT22;49403;51.046;13.780;2023-04-25T03:13:21;10.80;67.10
63277;DHT22;49403;51.046;13.780;2023-04-25T03:13:52;11.00;67.60
63277;DHT22;49403;51.046;13.780;2023-04-25T03:14:23;10.70;67.10
63277;DHT22;49403;51.046;13.780;2023-04-25T03:14:55;10.70;67.10
63277;DHT22;49403;51.046;13.780;2023-04-25T03:15:26;10.70;67.20
63277;DHT22;49403;51.046;13.780;2023-04-25T03:16:01;12.40;68.90
63277;DHT22;49403;51.046;13.780;2023-04-25T03:16:32;10.70;67.30
63277;DHT22;49403;51.046;13.780;2023-04-25T03:17:04;11.40;68.40
63277;DHT22;49403;51.046;13.780;2023-04-25T03:17:38;10.70;67.30
63277;DHT22;49403;51.046;13.780;2023-04-25T03:18:10;10.70;67.20
63277;DHT22;49403;51.046;13.780;2023-04-25T03:18:41;10.70;67.10
63277;DHT22;49403;51.046;13.780;2023-04-25T03:19:12;10.70;67.20
63277;DHT22;49403;51.046;13.780;2023-04-25T03:19:47;10.70;67.10
63277;DHT22;49403;51.046;13.780;2023-04-25T03:20:18;10.70;67.10